Terminal Aerodrome Forecast
Issued by NWS

Home | Current Version | Previous Version | Text Only | Print | Product List | Glossary On
Versions: 1 2 3 4 5 6 7 8 9 10 11 12 13 14 15 16 17 18 19 20 21 22 23 24 25 26
643
FTUS41 KOKX 252339
TAFTEB
TAF
KTEB 252339Z 2600/2624 06014G23KT 3SM -RA BR OVC010
      TEMPO 2600/2603 1SM +RA OVC008
     FM260300 04010G16KT 2SM RA BR OVC005
     FM260700 05007KT 1SM -RA BR OVC003
     FM261400 03006KT 3SM BR OVC006
     FM261800 02005KT 6SM BR BKN008 OVC015=

USA.gov is the U.S. government's official web portal to all federal, state and local government web resources and services.